sensor_id;sensor_type;location;lat;lon;timestamp;P1;durP1;ratioP1;P2;durP2;ratioP2
39860;SDS011;25529;49.346;20.886;2023-12-07T06:24:17;128.30;;;60.60;;
39860;SDS011;25529;49.346;20.886;2023-12-07T06:45:22;117.47;;;54.53;;
39860;SDS011;25529;49.346;20.886;2023-12-07T06:48:06;109.28;;;53.13;;
39860;SDS011;25529;49.346;20.886;2023-12-07T06:57:22;112.68;;;51.15;;
39860;SDS011;25529;49.346;20.886;2023-12-07T06:59:56;116.05;;;53.10;;
39860;SDS011;25529;49.346;20.886;2023-12-07T07:02:24;114.65;;;55.05;;
39860;SDS011;25529;49.346;20.886;2023-12-07T07:04:55;107.57;;;51.10;;
39860;SDS011;25529;49.346;20.886;2023-12-07T07:25:54;101.90;;;47.90;;
39860;SDS011;25529;49.346;20.886;2023-12-07T07:47:21;100.82;;;44.72;;
39860;SDS011;25529;49.346;20.886;2023-12-07T07:49:52;99.35;;;45.65;;
39860;SDS011;25529;49.346;20.886;2023-12-07T07:52:32;102.57;;;45.10;;
39860;SDS011;25529;49.346;20.886;2023-12-07T07:55:01;97.07;;;43.30;;
39860;SDS011;25529;49.346;20.886;2023-12-07T07:57:39;97.18;;;44.00;;
39860;SDS011;25529;49.346;20.886;2023-12-07T08:00:12;87.80;;;42.72;;
39860;SDS011;25529;49.346;20.886;2023-12-07T08:08:49;97.25;;;45.60;;
39860;SDS011;25529;49.346;20.886;2023-12-07T08:11:18;98.35;;;42.83;;
39860;SDS011;25529;49.346;20.886;2023-12-07T08:13:55;96.68;;;43.75;;
39860;SDS011;25529;49.346;20.886;2023-12-07T08:19:01;90.55;;;41.00;;
39860;SDS011;25529;49.346;20.886;2023-12-07T08:21:47;90.78;;;40.38;;
39860;SDS011;25529;49.346;20.886;2023-12-07T08:40:42;82.40;;;37.55;;
39860;SDS011;25529;49.346;20.886;2023-12-07T08:45:43;84.55;;;39.40;;
39860;SDS011;25529;49.346;20.886;2023-12-07T08:48:11;85.60;;;40.17;;
39860;SDS011;25529;49.346;20.886;2023-12-07T08:50:37;94.78;;;43.47;;
39860;SDS011;25529;49.346;20.886;2023-12-07T08:53:11;83.28;;;40.00;;
39860;SDS011;25529;49.346;20.886;2023-12-07T09:38:29;66.72;;;30.15;;
39860;SDS011;25529;49.346;20.886;2023-12-07T09:52:19;63.85;;;29.20;;
39860;SDS011;25529;49.346;20.886;2023-12-07T10:03:23;66.35;;;30.15;;
39860;SDS011;25529;49.346;20.886;2023-12-07T10:06:10;67.00;;;30.65;;
39860;SDS011;25529;49.346;20.886;2023-12-07T10:08:40;66.88;;;30.40;;
39860;SDS011;25529;49.346;20.886;2023-12-07T10:11:07;65.80;;;30.15;;
39860;SDS011;25529;49.346;20.886;2023-12-07T10:45:14;63.75;;;28.92;;
39860;SDS011;25529;49.346;20.886;2023-12-07T10:47:40;65.82;;;30.23;;
39860;SDS011;25529;49.346;20.886;2023-12-07T10:50:09;70.18;;;33.15;;
39860;SDS011;25529;49.346;20.886;2023-12-07T10:52:44;71.05;;;31.80;;
39860;SDS011;25529;49.346;20.886;2023-12-07T10:55:11;70.22;;;31.58;;
39860;SDS011;25529;49.346;20.886;2023-12-07T10:57:38;71.05;;;32.42;;
39860;SDS011;25529;49.346;20.886;2023-12-07T11:00:06;70.20;;;31.92;;
39860;SDS011;25529;49.346;20.886;2023-12-07T11:02:32;71.30;;;32.58;;
39860;SDS011;25529;49.346;20.886;2023-12-07T11:05:01;67.32;;;31.25;;
39860;SDS011;25529;49.346;20.886;2023-12-07T11:07:28;72.10;;;33.38;;
39860;SDS011;25529;49.346;20.886;2023-12-07T11:10:00;70.00;;;31.85;;
39860;SDS011;25529;49.346;20.886;2023-12-07T11:18:10;65.95;;;31.17;;
39860;SDS011;25529;49.346;20.886;2023-12-07T11:20:40;72.00;;;32.75;;
39860;SDS011;25529;49.346;20.886;2023-12-07T11:23:21;70.57;;;31.88;;
39860;SDS011;25529;49.346;20.886;2023-12-07T11:26:13;69.45;;;31.25;;
39860;SDS011;25529;49.346;20.886;2023-12-07T11:28:42;67.63;;;31.50;;
39860;SDS011;25529;49.346;20.886;2023-12-07T11:31:09;71.75;;;32.17;;
39860;SDS011;25529;49.346;20.886;2023-12-07T11:33:39;70.53;;;31.92;;
39860;SDS011;25529;49.346;20.886;2023-12-07T11:36:05;73.65;;;32.35;;
39860;SDS011;25529;49.346;20.886;2023-12-07T11:38:32;70.70;;;33.22;;
39860;SDS011;25529;49.346;20.886;2023-12-07T11:40:59;68.55;;;30.48;;
39860;SDS011;25529;49.346;20.886;2023-12-07T11:46:08;64.85;;;30.50;;
39860;SDS011;25529;49.346;20.886;2023-12-07T11:48:37;66.03;;;30.00;;
39860;SDS011;25529;49.346;20.886;2023-12-07T11:51:12;67.07;;;30.90;;
39860;SDS011;25529;49.346;20.886;2023-12-07T11:53:39;85.18;;;43.47;;
39860;SDS011;25529;49.346;20.886;2023-12-07T11:56:05;70.88;;;31.88;;
39860;SDS011;25529;49.346;20.886;2023-12-07T11:58:34;66.80;;;31.00;;
39860;SDS011;25529;49.346;20.886;2023-12-07T12:01:00;65.03;;;29.95;;
39860;SDS011;25529;49.346;20.886;2023-12-07T12:03:27;63.28;;;30.17;;
39860;SDS011;25529;49.346;20.886;2023-12-07T12:05:53;62.83;;;29.88;;
39860;SDS011;25529;49.346;20.886;2023-12-07T12:08:20;64.35;;;30.38;;
39860;SDS011;25529;49.346;20.886;2023-12-07T12:10:46;197.98;;;97.18;;
39860;SDS011;25529;49.346;20.886;2023-12-07T12:13:15;353.13;;;218.50;;
39860;SDS011;25529;49.346;20.886;2023-12-07T12:15:41;75.68;;;36.47;;
39860;SDS011;25529;49.346;20.886;2023-12-07T12:18:15;65.20;;;30.48;;
39860;SDS011;25529;49.346;20.886;2023-12-07T12:20:49;65.57;;;29.45;;
39860;SDS011;25529;49.346;20.886;2023-12-07T12:23:15;65.88;;;29.13;;
39860;SDS011;25529;49.346;20.886;2023-12-07T12:25:40;78.38;;;37.30;;
39860;SDS011;25529;49.346;20.886;2023-12-07T12:28:06;64.55;;;30.95;;
39860;SDS011;25529;49.346;20.886;2023-12-07T12:30:32;109.13;;;56.35;;
39860;SDS011;25529;49.346;20.886;2023-12-07T12:32:58;70.28;;;33.83;;
39860;SDS011;25529;49.346;20.886;2023-12-07T12:35:27;64.97;;;32.30;;
39860;SDS011;25529;49.346;20.886;2023-12-07T12:37:55;67.15;;;29.83;;
39860;SDS011;25529;49.346;20.886;2023-12-07T12:40:52;65.95;;;31.13;;
39860;SDS011;25529;49.346;20.886;2023-12-07T12:43:22;70.78;;;32.85;;
39860;SDS011;25529;49.346;20.886;2023-12-07T12:48:53;69.40;;;32.33;;
39860;SDS011;25529;49.346;20.886;2023-12-07T12:52:02;75.47;;;32.30;;
39860;SDS011;25529;49.346;20.886;2023-12-07T12:54:51;72.47;;;33.08;;
39860;SDS011;25529;49.346;20.886;2023-12-07T12:57:34;71.20;;;32.65;;
39860;SDS011;25529;49.346;20.886;2023-12-07T13:25:09;75.32;;;34.30;;
39860;SDS011;25529;49.346;20.886;2023-12-07T13:27:35;68.47;;;31.67;;
39860;SDS011;25529;49.346;20.886;2023-12-07T13:30:01;66.05;;;32.45;;
39860;SDS011;25529;49.346;20.886;2023-12-07T13:32:26;69.90;;;32.40;;
39860;SDS011;25529;49.346;20.886;2023-12-07T13:34:52;69.07;;;32.13;;
39860;SDS011;25529;49.346;20.886;2023-12-07T13:37:17;69.13;;;33.70;;
39860;SDS011;25529;49.346;20.886;2023-12-07T13:39:42;64.75;;;30.77;;
39860;SDS011;25529;49.346;20.886;2023-12-07T13:42:08;66.40;;;31.00;;
39860;SDS011;25529;49.346;20.886;2023-12-07T13:44:35;60.42;;;27.45;;
39860;SDS011;25529;49.346;20.886;2023-12-07T13:47:01;63.88;;;29.15;;
39860;SDS011;25529;49.346;20.886;2023-12-07T13:49:27;66.38;;;30.15;;
39860;SDS011;25529;49.346;20.886;2023-12-07T13:51:52;68.22;;;32.08;;
39860;SDS011;25529;49.346;20.886;2023-12-07T13:57:35;59.80;;;27.63;;
39860;SDS011;25529;49.346;20.886;2023-12-07T14:00:04;61.22;;;28.00;;
39860;SDS011;25529;49.346;20.886;2023-12-07T14:02:30;64.80;;;28.63;;
39860;SDS011;25529;49.346;20.886;2023-12-07T14:04:59;59.72;;;28.80;;
39860;SDS011;25529;49.346;20.886;2023-12-07T14:07:38;62.22;;;27.13;;
39860;SDS011;25529;49.346;20.886;2023-12-07T14:10:27;61.50;;;28.73;;
39860;SDS011;25529;49.346;20.886;2023-12-07T14:13:15;56.00;;;25.60;;
39860;SDS011;25529;49.346;20.886;2023-12-07T14:16:01;58.80;;;26.77;;
39860;SDS011;25529;49.346;20.886;2023-12-07T14:18:26;57.00;;;25.98;;
39860;SDS011;25529;49.346;20.886;2023-12-07T14:24:17;58.72;;;26.00;;
39860;SDS011;25529;49.346;20.886;2023-12-07T14:26:43;59.55;;;26.15;;
39860;SDS011;25529;49.346;20.886;2023-12-07T14:29:11;55.78;;;25.38;;
39860;SDS011;25529;49.346;20.886;2023-12-07T14:31:55;54.67;;;25.83;;
39860;SDS011;25529;49.346;20.886;2023-12-07T14:34:24;57.35;;;25.35;;
39860;SDS011;25529;49.346;20.886;2023-12-07T14:36:52;53.20;;;24.45;;
39860;SDS011;25529;49.346;20.886;2023-12-07T14:39:18;52.67;;;23.65;;
39860;SDS011;25529;49.346;20.886;2023-12-07T14:41:49;68.75;;;33.35;;
39860;SDS011;25529;49.346;20.886;2023-12-07T14:44:19;56.67;;;25.08;;
39860;SDS011;25529;49.346;20.886;2023-12-07T14:46:47;51.70;;;24.25;;
39860;SDS011;25529;49.346;20.886;2023-12-07T14:49:22;52.70;;;23.15;;
39860;SDS011;25529;49.346;20.886;2023-12-07T14:51:51;51.70;;;23.10;;
39860;SDS011;25529;49.346;20.886;2023-12-07T14:54:22;52.65;;;23.88;;
39860;SDS011;25529;49.346;20.886;2023-12-07T14:56:51;54.88;;;25.67;;
39860;SDS011;25529;49.346;20.886;2023-12-07T15:11:59;52.58;;;23.75;;
39860;SDS011;25529;49.346;20.886;2023-12-07T15:14:51;52.95;;;23.95;;
39860;SDS011;25529;49.346;20.886;2023-12-07T15:17:20;54.47;;;25.47;;
39860;SDS011;25529;49.346;20.886;2023-12-07T15:19:45;53.72;;;24.08;;
39860;SDS011;25529;49.346;20.886;2023-12-07T15:22:11;74.32;;;33.88;;
39860;SDS011;25529;49.346;20.886;2023-12-07T15:24:39;51.47;;;23.52;;
39860;SDS011;25529;49.346;20.886;2023-12-07T15:27:07;57.08;;;25.13;;
39860;SDS011;25529;49.346;20.886;2023-12-07T15:29:35;53.25;;;23.98;;
39860;SDS011;25529;49.346;20.886;2023-12-07T15:32:03;49.58;;;23.15;;
39860;SDS011;25529;49.346;20.886;2023-12-07T15:34:31;52.38;;;22.65;;
39860;SDS011;25529;49.346;20.886;2023-12-07T15:36:59;52.17;;;23.70;;
39860;SDS011;25529;49.346;20.886;2023-12-07T15:39:27;51.38;;;22.92;;
39860;SDS011;25529;49.346;20.886;2023-12-07T15:41:55;49.47;;;22.42;;
39860;SDS011;25529;49.346;20.886;2023-12-07T15:44:26;46.17;;;22.23;;
39860;SDS011;25529;49.346;20.886;2023-12-07T15:46:51;51.35;;;24.23;;
39860;SDS011;25529;49.346;20.886;2023-12-07T15:49:17;50.33;;;22.13;;
39860;SDS011;25529;49.346;20.886;2023-12-07T15:51:43;52.97;;;22.60;;
39860;SDS011;25529;49.346;20.886;2023-12-07T15:54:15;54.70;;;24.10;;
39860;SDS011;25529;49.346;20.886;2023-12-07T15:56:44;51.15;;;23.52;;
39860;SDS011;25529;49.346;20.886;2023-12-07T15:59:09;49.70;;;22.88;;
39860;SDS011;25529;49.346;20.886;2023-12-07T16:01:38;49.70;;;23.20;;
39860;SDS011;25529;49.346;20.886;2023-12-07T16:04:04;52.25;;;24.17;;
39860;SDS011;25529;49.346;20.886;2023-12-07T16:09:40;53.50;;;23.45;;
39860;SDS011;25529;49.346;20.886;2023-12-07T16:14:51;52.95;;;23.60;;
39860;SDS011;25529;49.346;20.886;2023-12-07T16:17:21;54.97;;;23.08;;
39860;SDS011;25529;49.346;20.886;2023-12-07T16:19:49;51.50;;;22.38;;
39860;SDS011;25529;49.346;20.886;2023-12-07T16:22:18;50.47;;;23.13;;
39860;SDS011;25529;49.346;20.886;2023-12-07T16:28:18;52.67;;;24.13;;
39860;SDS011;25529;49.346;20.886;2023-12-07T16:31:05;51.30;;;24.30;;
39860;SDS011;25529;49.346;20.886;2023-12-07T16:33:31;54.42;;;25.23;;
39860;SDS011;25529;49.346;20.886;2023-12-07T16:35:56;57.97;;;25.17;;
39860;SDS011;25529;49.346;20.886;2023-12-07T16:38:22;53.72;;;24.92;;
39860;SDS011;25529;49.346;20.886;2023-12-07T16:40:47;54.53;;;25.20;;
39860;SDS011;25529;49.346;20.886;2023-12-07T16:43:13;52.05;;;24.25;;
39860;SDS011;25529;49.346;20.886;2023-12-07T16:45:41;53.50;;;23.40;;
39860;SDS011;25529;49.346;20.886;2023-12-07T16:48:07;52.83;;;23.20;;
39860;SDS011;25529;49.346;20.886;2023-12-07T16:50:33;52.30;;;25.13;;
39860;SDS011;25529;49.346;20.886;2023-12-07T16:52:59;56.20;;;23.75;;
39860;SDS011;25529;49.346;20.886;2023-12-07T16:55:28;53.40;;;23.70;;
39860;SDS011;25529;49.346;20.886;2023-12-07T16:57:54;50.55;;;22.92;;
39860;SDS011;25529;49.346;20.886;2023-12-07T17:00:20;52.47;;;23.63;;
39860;SDS011;25529;49.346;20.886;2023-12-07T17:08:51;98.07;;;58.83;;
39860;SDS011;25529;49.346;20.886;2023-12-07T17:11:21;57.25;;;25.85;;
39860;SDS011;25529;49.346;20.886;2023-12-07T17:13:52;52.83;;;24.13;;
39860;SDS011;25529;49.346;20.886;2023-12-07T17:16:31;54.78;;;24.55;;
39860;SDS011;25529;49.346;20.886;2023-12-07T17:18:58;54.65;;;24.50;;
39860;SDS011;25529;49.346;20.886;2023-12-07T17:21:24;53.85;;;25.92;;
39860;SDS011;25529;49.346;20.886;2023-12-07T17:23:51;55.22;;;25.73;;
39860;SDS011;25529;49.346;20.886;2023-12-07T17:26:17;55.17;;;24.90;;
39860;SDS011;25529;49.346;20.886;2023-12-07T17:28:43;56.92;;;26.00;;
39860;SDS011;25529;49.346;20.886;2023-12-07T17:31:10;60.22;;;27.02;;
39860;SDS011;25529;49.346;20.886;2023-12-07T17:33:35;54.10;;;24.50;;
39860;SDS011;25529;49.346;20.886;2023-12-07T17:36:01;54.05;;;25.25;;
39860;SDS011;25529;49.346;20.886;2023-12-07T17:41:02;57.83;;;26.27;;
39860;SDS011;25529;49.346;20.886;2023-12-07T17:46:47;52.38;;;23.58;;
39860;SDS011;25529;49.346;20.886;2023-12-07T18:10:32;56.80;;;26.83;;
39860;SDS011;25529;49.346;20.886;2023-12-07T18:12:59;59.25;;;26.98;;
39860;SDS011;25529;49.346;20.886;2023-12-07T18:15:34;63.47;;;26.75;;
39860;SDS011;25529;49.346;20.886;2023-12-07T18:18:03;61.30;;;27.75;;
39860;SDS011;25529;49.346;20.886;2023-12-07T18:20:30;56.95;;;26.27;;
39860;SDS011;25529;49.346;20.886;2023-12-07T18:23:13;62.30;;;29.00;;
39860;SDS011;25529;49.346;20.886;2023-12-07T18:25:42;57.20;;;27.27;;
39860;SDS011;25529;49.346;20.886;2023-12-07T18:28:11;63.08;;;28.35;;
39860;SDS011;25529;49.346;20.886;2023-12-07T18:40:31;61.67;;;28.15;;
39860;SDS011;25529;49.346;20.886;2023-12-07T18:42:57;64.57;;;28.95;;
39860;SDS011;25529;49.346;20.886;2023-12-07T18:45:22;62.78;;;28.08;;
39860;SDS011;25529;49.346;20.886;2023-12-07T18:47:48;64.25;;;29.27;;
39860;SDS011;25529;49.346;20.886;2023-12-07T18:53:36;63.35;;;27.48;;
39860;SDS011;25529;49.346;20.886;2023-12-07T18:56:20;65.10;;;27.90;;
39860;SDS011;25529;49.346;20.886;2023-12-07T18:59:04;64.32;;;28.92;;
39860;SDS011;25529;49.346;20.886;2023-12-07T19:01:47;62.83;;;27.17;;
39860;SDS011;25529;49.346;20.886;2023-12-07T19:04:29;61.60;;;29.45;;
39860;SDS011;25529;49.346;20.886;2023-12-07T19:06:57;63.38;;;28.80;;
39860;SDS011;25529;49.346;20.886;2023-12-07T19:09:25;61.88;;;28.52;;
39860;SDS011;25529;49.346;20.886;2023-12-07T19:11:56;63.40;;;26.67;;
39860;SDS011;25529;49.346;20.886;2023-12-07T19:53:41;58.78;;;26.48;;
39860;SDS011;25529;49.346;20.886;2023-12-07T19:59:11;62.78;;;28.20;;
39860;SDS011;25529;49.346;20.886;2023-12-07T20:01:47;59.15;;;28.02;;
39860;SDS011;25529;49.346;20.886;2023-12-07T20:04:15;54.80;;;25.50;;
39860;SDS011;25529;49.346;20.886;2023-12-07T20:06:43;58.70;;;26.60;;
39860;SDS011;25529;49.346;20.886;2023-12-07T20:09:13;61.17;;;27.90;;
39860;SDS011;25529;49.346;20.886;2023-12-07T20:11:44;57.38;;;27.00;;
39860;SDS011;25529;49.346;20.886;2023-12-07T20:14:13;56.65;;;26.55;;
39860;SDS011;25529;49.346;20.886;2023-12-07T20:16:39;60.17;;;27.25;;
39860;SDS011;25529;49.346;20.886;2023-12-07T20:19:13;62.15;;;27.98;;
39860;SDS011;25529;49.346;20.886;2023-12-07T20:21:42;59.63;;;27.27;;
39860;SDS011;25529;49.346;20.886;2023-12-07T20:24:11;59.42;;;27.25;;
39860;SDS011;25529;49.346;20.886;2023-12-07T20:26:58;63.40;;;28.55;;
39860;SDS011;25529;49.346;20.886;2023-12-07T20:29:23;57.63;;;25.33;;
39860;SDS011;25529;49.346;20.886;2023-12-07T20:31:51;60.70;;;28.08;;
39860;SDS011;25529;49.346;20.886;2023-12-07T20:34:16;57.10;;;26.92;;
39860;SDS011;25529;49.346;20.886;2023-12-07T20:36:41;58.42;;;26.08;;
39860;SDS011;25529;49.346;20.886;2023-12-07T20:39:09;59.40;;;27.25;;
39860;SDS011;25529;49.346;20.886;2023-12-07T20:41:41;58.85;;;25.33;;
39860;SDS011;25529;49.346;20.886;2023-12-07T20:44:07;58.38;;;25.55;;
39860;SDS011;25529;49.346;20.886;2023-12-07T20:46:32;57.53;;;25.33;;
39860;SDS011;25529;49.346;20.886;2023-12-07T20:48:58;56.05;;;26.73;;
39860;SDS011;25529;49.346;20.886;2023-12-07T20:51:23;62.35;;;29.13;;
39860;SDS011;25529;49.346;20.886;2023-12-07T20:53:49;60.75;;;26.45;;
39860;SDS011;25529;49.346;20.886;2023-12-07T20:56:14;62.40;;;27.70;;
39860;SDS011;25529;49.346;20.886;2023-12-07T20:58:43;60.55;;;28.23;;
39860;SDS011;25529;49.346;20.886;2023-12-07T21:01:14;56.83;;;26.63;;
39860;SDS011;25529;49.346;20.886;2023-12-07T21:03:40;57.53;;;27.50;;
39860;SDS011;25529;49.346;20.886;2023-12-07T21:06:08;61.00;;;27.15;;
39860;SDS011;25529;49.346;20.886;2023-12-07T21:08:38;60.75;;;27.20;;
39860;SDS011;25529;49.346;20.886;2023-12-07T21:11:07;54.78;;;24.92;;
39860;SDS011;25529;49.346;20.886;2023-12-07T21:13:37;54.88;;;25.88;;
39860;SDS011;25529;49.346;20.886;2023-12-07T21:16:05;62.03;;;27.00;;
39860;SDS011;25529;49.346;20.886;2023-12-07T21:18:33;58.42;;;26.95;;
39860;SDS011;25529;49.346;20.886;2023-12-07T21:20:59;62.55;;;26.67;;
39860;SDS011;25529;49.346;20.886;2023-12-07T21:23:24;61.22;;;27.23;;
39860;SDS011;25529;49.346;20.886;2023-12-07T21:25:50;62.20;;;27.05;;
39860;SDS011;25529;49.346;20.886;2023-12-07T21:28:18;60.33;;;27.60;;
39860;SDS011;25529;49.346;20.886;2023-12-07T21:34:01;57.67;;;27.25;;
39860;SDS011;25529;49.346;20.886;2023-12-07T21:36:36;64.07;;;27.92;;
39860;SDS011;25529;49.346;20.886;2023-12-07T21:39:11;63.00;;;28.15;;
39860;SDS011;25529;49.346;20.886;2023-12-07T21:41:39;59.28;;;27.60;;
39860;SDS011;25529;49.346;20.886;2023-12-07T21:50:57;70.80;;;33.83;;
39860;SDS011;25529;49.346;20.886;2023-12-07T21:56:40;67.28;;;30.67;;
39860;SDS011;25529;49.346;20.886;2023-12-07T22:02:01;70.78;;;32.63;;
39860;SDS011;25529;49.346;20.886;2023-12-07T22:04:30;78.60;;;35.42;;
39860;SDS011;25529;49.346;20.886;2023-12-07T22:06:56;93.57;;;41.83;;
39860;SDS011;25529;49.346;20.886;2023-12-07T22:09:28;78.40;;;35.65;;
39860;SDS011;25529;49.346;20.886;2023-12-07T22:11:53;84.07;;;38.38;;
39860;SDS011;25529;49.346;20.886;2023-12-07T22:14:19;84.53;;;38.20;;
39860;SDS011;25529;49.346;20.886;2023-12-07T22:16:44;88.85;;;41.22;;
39860;SDS011;25529;49.346;20.886;2023-12-07T22:19:12;96.35;;;43.33;;
39860;SDS011;25529;49.346;20.886;2023-12-07T22:21:37;99.85;;;46.92;;
39860;SDS011;25529;49.346;20.886;2023-12-07T22:24:02;89.57;;;41.63;;
39860;SDS011;25529;49.346;20.886;2023-12-07T22:26:28;96.68;;;42.85;;
39860;SDS011;25529;49.346;20.886;2023-12-07T22:28:53;85.28;;;41.28;;
39860;SDS011;25529;49.346;20.886;2023-12-07T22:31:19;88.13;;;38.67;;
39860;SDS011;25529;49.346;20.886;2023-12-07T22:33:45;104.70;;;47.05;;
39860;SDS011;25529;49.346;20.886;2023-12-07T22:36:19;117.93;;;51.70;;
39860;SDS011;25529;49.346;20.886;2023-12-07T22:38:45;106.65;;;47.33;;
39860;SDS011;25529;49.346;20.886;2023-12-07T22:41:14;111.93;;;49.55;;
39860;SDS011;25529;49.346;20.886;2023-12-07T22:43:39;104.45;;;46.92;;
39860;SDS011;25529;49.346;20.886;2023-12-07T22:46:05;88.90;;;42.08;;
39860;SDS011;25529;49.346;20.886;2023-12-07T22:48:30;109.90;;;47.45;;
39860;SDS011;25529;49.346;20.886;2023-12-07T22:50:56;100.57;;;45.72;;
39860;SDS011;25529;49.346;20.886;2023-12-07T22:53:21;94.60;;;45.33;;
39860;SDS011;25529;49.346;20.886;2023-12-07T22:55:46;120.78;;;50.58;;
39860;SDS011;25529;49.346;20.886;2023-12-07T22:58:12;111.68;;;49.88;;
39860;SDS011;25529;49.346;20.886;2023-12-07T23:00:37;110.82;;;49.17;;
39860;SDS011;25529;49.346;20.886;2023-12-07T23:03:03;116.00;;;50.85;;
39860;SDS011;25529;49.346;20.886;2023-12-07T23:05:28;113.90;;;49.85;;
39860;SDS011;25529;49.346;20.886;2023-12-07T23:07:54;106.20;;;49.47;;
39860;SDS011;25529;49.346;20.886;2023-12-07T23:10:19;107.73;;;49.00;;
39860;SDS011;25529;49.346;20.886;2023-12-07T23:12:44;102.65;;;48.60;;
39860;SDS011;25529;49.346;20.886;2023-12-07T23:15:10;103.55;;;46.88;;
39860;SDS011;25529;49.346;20.886;2023-12-07T23:17:35;108.38;;;47.17;;
39860;SDS011;25529;49.346;20.886;2023-12-07T23:20:00;112.70;;;48.15;;
39860;SDS011;25529;49.346;20.886;2023-12-07T23:22:26;101.90;;;45.58;;
39860;SDS011;25529;49.346;20.886;2023-12-07T23:24:51;94.15;;;41.08;;
39860;SDS011;25529;49.346;20.886;2023-12-07T23:27:17;99.93;;;43.83;;
39860;SDS011;25529;49.346;20.886;2023-12-07T23:29:42;96.63;;;42.07;;
39860;SDS011;25529;49.346;20.886;2023-12-07T23:32:08;98.35;;;43.65;;
39860;SDS011;25529;49.346;20.886;2023-12-07T23:34:34;96.85;;;40.35;;
39860;SDS011;25529;49.346;20.886;2023-12-07T23:36:59;91.05;;;42.38;;
39860;SDS011;25529;49.346;20.886;2023-12-07T23:39:25;97.13;;;41.25;;
39860;SDS011;25529;49.346;20.886;2023-12-07T23:41:50;95.47;;;40.72;;
39860;SDS011;25529;49.346;20.886;2023-12-07T23:44:16;97.97;;;43.00;;
39860;SDS011;25529;49.346;20.886;2023-12-07T23:46:42;98.40;;;43.08;;
39860;SDS011;25529;49.346;20.886;2023-12-07T23:49:08;93.93;;;42.70;;
39860;SDS011;25529;49.346;20.886;2023-12-07T23:51:33;99.07;;;43.17;;
39860;SDS011;25529;49.346;20.886;2023-12-07T23:53:59;95.20;;;42.20;;
39860;SDS011;25529;49.346;20.886;2023-12-07T23:56:25;99.15;;;43.20;;
39860;SDS011;25529;49.346;20.886;2023-12-07T23:58:50;96.70;;;41.60;;
